Time;durP1;ratioP1;P1;durP2;ratioP2;P2;SDS_P1;SDS_P2;PMS_P1;PMS_P2;Temp;Humidity;BMP_temperature;BMP_pressure;BME280_temperature;BME280_humidity;BME280_pressure;Samples;Min_cycle;Max_cycle;Signal;HPM_P1;HPM_P2
2022/03/07 00:01:56;;;;;;;7.53;3.60;;;0.60;99.90;;;;;;5018483;28;20041;-82
2022/03/07 00:04:22;;;;;;;5.43;3.40;;;0.60;99.90;;;;;;5018370;28;20454;-82
2022/03/07 00:06:48;;;;;;;9.52;3.88;;;0.60;99.90;;;;;;5035043;28;20110;-82
2022/03/07 00:09:14;;;;;;;6.43;4.00;;;0.60;99.90;;;;;;5018454;28;20367;-82
2022/03/07 00:11:42;;;;;;;6.72;3.45;;;0.60;99.90;;;;;;5034898;28;20036;-83
2022/03/07 00:14:08;;;;;;;6.43;3.30;;;0.50;99.90;;;;;;5034774;28;20033;-83
2022/03/07 00:16:34;;;;;;;7.15;3.67;;;0.50;99.90;;;;;;5018309;28;20055;-82
2022/03/07 00:19:00;;;;;;;5.95;3.10;;;0.50;99.90;;;;;;5018377;28;20056;-82
2022/03/07 00:21:26;;;;;;;6.57;3.03;;;0.40;99.90;;;;;;5018417;28;20059;-82
2022/03/07 00:23:52;;;;;;;6.03;3.35;;;0.30;99.90;;;;;;5018263;28;20128;-82
2022/03/07 00:26:19;;;;;;;6.93;3.25;;;0.30;99.90;;;;;;5034854;28;20051;-82
2022/03/07 00:28:47;;;;;;;7.53;3.72;;;0.20;99.90;;;;;;5031390;28;20133;-82
2022/03/07 00:31:13;;;;;;;6.55;3.63;;;0.20;99.90;;;;;;5034933;28;20053;-82
2022/03/07 00:33:38;;;;;;;6.85;2.97;;;0.10;99.90;;;;;;5038169;28;20040;-82
2022/03/07 00:36:05;;;;;;;5.57;3.05;;;0.10;99.90;;;;;;5038006;28;20513;-82
2022/03/07 00:38:31;;;;;;;5.03;3.00;;;0.00;99.90;;;;;;5037912;28;20048;-82
2022/03/07 00:40:58;;;;;;;5.28;3.03;;;0.00;99.90;;;;;;5037518;28;20059;-82
2022/03/07 00:43:24;;;;;;;7.82;3.35;;;-0.10;99.90;;;;;;5037846;28;20577;-82
2022/03/07 00:45:50;;;;;;;7.93;3.55;;;-0.10;99.90;;;;;;5037823;28;20044;-82
2022/03/07 00:48:17;;;;;;;6.53;3.25;;;-0.20;99.90;;;;;;5054261;28;20043;-82
2022/03/07 00:50:45;;;;;;;5.38;3.25;;;-0.20;99.90;;;;;;5037861;28;20345;-83
2022/03/07 00:53:12;;;;;;;8.38;3.35;;;-0.30;99.90;;;;;;5032951;28;20052;-82
2022/03/07 00:55:39;;;;;;;7.70;3.28;;;-0.30;99.90;;;;;;5037608;28;20090;-82
2022/03/07 00:58:04;;;;;;;4.60;3.45;;;-0.30;99.90;;;;;;5037838;28;20053;-82
2022/03/07 01:00:31;;;;;;;4.65;3.03;;;-0.40;99.90;;;;;;5038180;28;20060;-82
2022/03/07 01:02:57;;;;;;;6.50;3.67;;;-0.50;99.90;;;;;;5058103;28;20048;-82
2022/03/07 01:05:23;;;;;;;7.60;3.60;;;-0.50;99.90;;;;;;5041528;28;20442;-83
2022/03/07 01:07:48;;;;;;;6.88;3.15;;;-0.50;99.90;;;;;;5041462;28;20051;-82
2022/03/07 01:10:14;;;;;;;8.50;3.35;;;-0.60;99.90;;;;;;5057903;28;20064;-82
2022/03/07 01:12:40;;;;;;;6.93;3.67;;;-0.60;99.90;;;;;;5058086;28;20197;-82
2022/03/07 01:15:08;;;;;;;6.05;3.30;;;-0.70;99.90;;;;;;5041226;28;20051;-82
2022/03/07 01:17:34;;;;;;;6.38;3.67;;;-0.70;99.90;;;;;;5041505;28;20037;-82
2022/03/07 01:20:01;;;;;;;8.63;3.50;;;-0.80;99.90;;;;;;5041415;28;20102;-82
2022/03/07 01:22:26;;;;;;;5.20;3.35;;;-0.80;99.90;;;;;;5041281;28;20059;-82
2022/03/07 01:24:52;;;;;;;5.93;2.78;;;-0.80;99.90;;;;;;5057335;28;20746;-82
2022/03/07 01:27:18;;;;;;;8.15;3.72;;;-0.80;99.90;;;;;;5036341;28;20041;-82
2022/03/07 01:29:43;;;;;;;7.90;3.10;;;-0.90;99.90;;;;;;5021175;28;20033;-82
2022/03/07 01:32:09;;;;;;;7.55;3.50;;;-0.90;99.90;;;;;;5037735;28;20040;-82
2022/03/07 01:34:35;;;;;;;8.68;4.10;;;-0.90;99.90;;;;;;5021172;28;20044;-82
2022/03/07 01:37:01;;;;;;;5.80;3.55;;;-0.90;99.90;;;;;;5016664;28;20127;-82
2022/03/07 01:39:27;;;;;;;9.68;3.40;;;-0.90;99.90;;;;;;5037093;28;20056;-82
2022/03/07 01:41:53;;;;;;;6.65;3.28;;;-0.80;99.90;;;;;;5021100;28;20461;-83
2022/03/07 01:44:25;;;;;;;10.57;4.40;;;-0.80;99.90;;;;;;5017547;28;20045;-82
2022/03/07 01:46:51;;;;;;;6.30;3.67;;;-0.80;99.90;;;;;;5020915;28;20047;-83
2022/03/07 01:49:18;;;;;;;9.57;4.10;;;-0.80;99.90;;;;;;5020869;28;20430;-83
2022/03/07 01:51:46;;;;;;;8.07;4.25;;;-0.90;99.90;;;;;;5020854;28;20087;-83
2022/03/07 01:54:16;;;;;;;7.53;3.40;;;-0.90;99.90;;;;;;5037347;28;20056;-82
2022/03/07 01:56:45;;;;;;;7.18;4.05;;;-0.90;99.90;;;;;;5020709;28;20102;-83
2022/03/07 01:59:17;;;;;;;5.78;3.85;;;-0.80;99.90;;;;;;5037153;28;20117;-82
2022/03/07 02:01:43;;;;;;;6.75;3.88;;;-0.80;99.90;;;;;;5037156;28;20032;-82
2022/03/07 02:04:10;;;;;;;7.85;3.97;;;-0.80;99.90;;;;;;5020384;28;20041;-82
2022/03/07 02:06:39;;;;;;;8.82;3.42;;;-0.80;99.90;;;;;;5020563;28;20052;-82
2022/03/07 02:09:10;;;;;;;5.93;2.83;;;-0.80;99.90;;;;;;5020580;28;20414;-82
2022/03/07 02:11:37;;;;;;;5.65;3.15;;;-0.90;99.90;;;;;;5036794;28;20123;-82
2022/03/07 02:14:17;;;;;;;4.18;2.60;;;-0.90;99.90;;;;;;5020582;28;20410;-83
2022/03/07 02:16:44;;;;;;;6.30;3.25;;;-1.00;99.90;;;;;;5020097;28;20512;-82
2022/03/07 02:19:12;;;;;;;8.65;3.53;;;-1.00;99.90;;;;;;5020428;28;20045;-82
2022/03/07 02:21:43;;;;;;;7.28;4.30;;;-1.00;99.90;;;;;;5020220;28;20052;-82
2022/03/07 02:24:09;;;;;;;7.03;3.65;;;-0.90;99.90;;;;;;5020155;28;20047;-83
2022/03/07 02:26:34;;;;;;;6.18;3.58;;;-0.90;99.90;;;;;;5020192;28;20045;-83
2022/03/07 02:29:00;;;;;;;8.50;3.25;;;-0.80;99.90;;;;;;5035226;28;20049;-82
2022/03/07 02:31:26;;;;;;;5.35;2.95;;;-0.80;99.90;;;;;;5055303;28;20524;-82
2022/03/07 02:33:52;;;;;;;11.65;3.65;;;-0.80;99.90;;;;;;5039967;28;20505;-82
2022/03/07 02:36:18;;;;;;;8.20;3.17;;;-0.80;99.90;;;;;;5039686;28;20043;-82
2022/03/07 02:38:44;;;;;;;4.65;3.22;;;-0.80;99.90;;;;;;5056271;28;20045;-83
2022/03/07 02:41:10;;;;;;;5.32;3.00;;;-0.80;99.90;;;;;;5039128;28;20044;-83
2022/03/07 02:43:36;;;;;;;9.10;3.45;;;-0.80;99.90;;;;;;5056116;28;20048;-82
2022/03/07 02:46:01;;;;;;;5.75;3.33;;;-0.80;99.90;;;;;;5039655;28;20048;-82
2022/03/07 02:48:27;;;;;;;7.32;3.70;;;-0.80;99.90;;;;;;5056250;28;20045;-83
2022/03/07 02:50:55;;;;;;;6.53;3.50;;;-0.80;99.90;;;;;;5055710;28;20071;-82
2022/03/07 02:53:21;;;;;;;7.38;3.78;;;-0.80;99.90;;;;;;5039260;28;20036;-82
2022/03/07 02:55:47;;;;;;;8.07;3.70;;;-0.80;99.90;;;;;;5056085;28;20139;-83
2022/03/07 02:58:13;;;;;;;10.73;4.10;;;-0.90;99.90;;;;;;5039321;28;20044;-83
2022/03/07 03:00:39;;;;;;;8.55;3.80;;;-0.90;99.90;;;;;;5039181;28;20043;-82
2022/03/07 03:03:05;;;;;;;8.13;3.38;;;-0.90;99.90;;;;;;5039202;28;20036;-82
2022/03/07 03:05:30;;;;;;;6.70;3.38;;;-0.90;99.90;;;;;;5039108;28;20144;-82
2022/03/07 03:07:56;;;;;;;8.30;3.88;;;-1.00;99.90;;;;;;5039056;28;20105;-82
2022/03/07 03:10:22;;;;;;;6.88;3.05;;;-1.00;99.90;;;;;;5039185;28;20048;-82
2022/03/07 03:12:49;;;;;;;6.38;3.03;;;-1.10;99.90;;;;;;5039066;28;20049;-83
2022/03/07 03:15:15;;;;;;;5.47;3.15;;;-1.10;99.90;;;;;;5039036;28;20044;-82
2022/03/07 03:17:42;;;;;;;5.78;3.30;;;-1.10;99.90;;;;;;5055640;28;20052;-83
2022/03/07 03:20:11;;;;;;;7.38;3.30;;;-1.20;99.90;;;;;;5033752;28;20036;-83
2022/03/07 03:22:37;;;;;;;4.85;2.97;;;-1.20;99.90;;;;;;5038871;28;20109;-83
2022/03/07 03:25:04;;;;;;;7.35;2.95;;;-1.20;99.90;;;;;;5050041;28;20537;-82
2022/03/07 03:27:30;;;;;;;4.70;3.13;;;-1.20;99.90;;;;;;5032508;28;20041;-82
2022/03/07 03:29:56;;;;;;;8.23;3.45;;;-1.30;99.90;;;;;;5019001;28;20056;-82
2022/03/07 03:32:22;;;;;;;6.15;3.63;;;-1.30;99.90;;;;;;5035421;28;20033;-83
2022/03/07 03:34:48;;;;;;;9.65;3.70;;;-1.30;99.90;;;;;;5018858;28;20124;-83
2022/03/07 03:37:14;;;;;;;8.75;3.90;;;-1.30;99.90;;;;;;5035049;28;20044;-83
2022/03/07 03:39:39;;;;;;;5.28;3.20;;;-1.20;99.90;;;;;;5018910;28;20060;-82
2022/03/07 03:42:05;;;;;;;8.32;3.75;;;-1.20;99.90;;;;;;5018695;28;20426;-82
2022/03/07 03:44:31;;;;;;;6.72;3.42;;;-1.20;99.90;;;;;;5018530;28;20044;-82
2022/03/07 03:46:57;;;;;;;8.50;3.08;;;-1.20;99.90;;;;;;5018766;28;20055;-82
2022/03/07 03:49:23;;;;;;;6.18;3.35;;;-1.30;99.90;;;;;;5018586;28;20174;-82
2022/03/07 03:51:49;;;;;;;8.77;3.53;;;-1.40;99.90;;;;;;5018660;28;20037;-83
2022/03/07 03:54:15;;;;;;;7.28;3.60;;;-1.40;99.90;;;;;;5018616;28;20076;-82
2022/03/07 03:56:41;;;;;;;6.40;3.35;;;-1.40;99.90;;;;;;5018611;28;20087;-82
2022/03/07 03:59:07;;;;;;;7.05;3.33;;;-1.50;99.90;;;;;;5018629;28;20044;-82
2022/03/07 04:01:33;;;;;;;5.88;3.65;;;-1.50;99.90;;;;;;5018511;28;20045;-82
2022/03/07 04:03:59;;;;;;;7.78;3.67;;;-1.50;99.90;;;;;;5018277;28;20056;-82
2022/03/07 04:06:24;;;;;;;4.47;2.85;;;-1.50;99.90;;;;;;5018508;28;20053;-82
2022/03/07 04:08:53;;;;;;;3.80;2.35;;;-1.60;99.90;;;;;;5018544;28;20057;-82
2022/03/07 04:11:20;;;;;;;5.20;3.25;;;-1.60;99.90;;;;;;5018406;28;20044;-83
2022/03/07 04:13:46;;;;;;;3.83;2.78;;;-1.60;99.90;;;;;;5014425;28;20040;-83
2022/03/07 04:16:12;;;;;;;4.88;2.53;;;-1.60;99.90;;;;;;5018270;28;20052;-82
2022/03/07 04:18:38;;;;;;;5.63;3.15;;;-1.70;99.90;;;;;;5034622;28;20055;-83
2022/03/07 04:21:04;;;;;;;5.07;3.35;;;-1.70;99.90;;;;;;5018435;28;20126;-83
2022/03/07 04:23:30;;;;;;;8.73;2.95;;;-1.70;99.90;;;;;;5018156;28;20059;-82
2022/03/07 04:25:55;;;;;;;6.60;3.53;;;-1.70;99.90;;;;;;5018279;28;20041;-82
2022/03/07 04:28:21;;;;;;;5.65;2.65;;;-1.80;99.90;;;;;;5029610;28;20048;-83
2022/03/07 04:30:47;;;;;;;4.60;2.80;;;-1.80;99.90;;;;;;5038227;28;20067;-83
2022/03/07 04:33:12;;;;;;;6.20;2.97;;;-1.80;99.90;;;;;;5054435;28;20464;-83
2022/03/07 04:35:38;;;;;;;4.38;2.72;;;-1.90;99.90;;;;;;5040593;28;20045;-82
2022/03/07 04:38:04;;;;;;;6.60;2.90;;;-2.00;99.90;;;;;;5042036;28;20135;-82
2022/03/07 04:40:30;;;;;;;6.90;2.70;;;-1.90;99.90;;;;;;5037215;28;20087;-83
2022/03/07 04:42:56;;;;;;;7.28;3.00;;;-1.90;99.90;;;;;;5041548;28;20048;-82
2022/03/07 04:45:22;;;;;;;7.13;3.55;;;-1.90;99.90;;;;;;5058699;28;20041;-83
2022/03/07 04:47:48;;;;;;;6.97;3.50;;;-1.90;99.90;;;;;;5058197;28;20040;-82
2022/03/07 04:50:14;;;;;;;7.68;3.63;;;-1.90;99.90;;;;;;5041998;28;20036;-82
2022/03/07 04:52:41;;;;;;;6.68;3.28;;;-1.90;99.90;;;;;;5041551;28;20105;-82
2022/03/07 04:55:09;;;;;;;5.75;3.55;;;-2.00;99.90;;;;;;5041908;28;20036;-82
2022/03/07 04:57:35;;;;;;;7.50;3.42;;;-1.90;99.90;;;;;;5041703;28;20032;-82
2022/03/07 05:00:02;;;;;;;6.85;3.50;;;-1.90;99.90;;;;;;5041662;28;20059;-82
2022/03/07 05:02:28;;;;;;;5.93;3.70;;;-1.90;99.90;;;;;;5058089;28;20043;-82
2022/03/07 05:04:54;;;;;;;4.65;3.25;;;-2.00;99.90;;;;;;5041381;28;20036;-82
2022/03/07 05:07:20;;;;;;;6.75;3.35;;;-2.00;99.90;;;;;;5058093;28;20056;-83
2022/03/07 05:09:46;;;;;;;6.20;3.17;;;-2.00;99.90;;;;;;5041600;28;20044;-82
2022/03/07 05:12:12;;;;;;;6.78;4.03;;;-2.00;99.90;;;;;;5057866;28;20318;-82
2022/03/07 05:14:38;;;;;;;5.15;3.42;;;-2.00;99.90;;;;;;5041457;28;20040;-82
2022/03/07 05:17:04;;;;;;;6.45;3.05;;;-2.10;99.90;;;;;;5057852;28;20047;-83
2022/03/07 05:19:30;;;;;;;5.10;2.80;;;-2.10;99.90;;;;;;5057973;28;20178;-83
2022/03/07 05:21:55;;;;;;;8.20;3.25;;;-2.20;99.90;;;;;;5040932;28;20051;-83
2022/03/07 05:24:21;;;;;;;8.90;3.60;;;-2.20;99.90;;;;;;5041054;28;20052;-82
2022/03/07 05:26:47;;;;;;;6.72;4.60;;;-2.20;99.90;;;;;;5040754;28;20040;-83
2022/03/07 05:29:14;;;;;;;6.68;3.60;;;-2.20;99.90;;;;;;5021440;28;20056;-82
2022/03/07 05:31:39;;;;;;;5.93;3.65;;;-2.20;99.90;;;;;;5021206;28;20473;-83
2022/03/07 05:34:05;;;;;;;7.63;4.13;;;-2.20;99.90;;;;;;5021309;28;20037;-83
2022/03/07 05:36:31;;;;;;;27.40;5.95;;;-2.20;99.90;;;;;;5037680;28;20052;-83
2022/03/07 05:38:57;;;;;;;7.90;4.43;;;-2.20;99.90;;;;;;5020815;28;20053;-83
2022/03/07 05:41:22;;;;;;;5.05;3.92;;;-2.20;99.90;;;;;;5020716;28;20045;-83
2022/03/07 05:43:48;;;;;;;8.20;3.70;;;-2.20;99.90;;;;;;5020835;28;20462;-82
2022/03/07 05:46:14;;;;;;;7.38;3.90;;;-2.20;99.90;;;;;;5033292;28;20060;-82
2022/03/07 05:48:40;;;;;;;5.95;3.95;;;-2.20;99.90;;;;;;5016301;28;20041;-82
2022/03/07 05:51:05;;;;;;;7.50;3.95;;;-2.20;99.90;;;;;;5020935;28;20409;-83
2022/03/07 05:53:31;;;;;;;5.65;3.90;;;-2.30;99.90;;;;;;5020744;28;20461;-82
2022/03/07 05:55:57;;;;;;;8.90;3.78;;;-2.30;99.90;;;;;;5037436;28;20162;-82
2022/03/07 05:58:23;;;;;;;9.23;4.45;;;-2.30;99.90;;;;;;5037285;28;20424;-82
2022/03/07 06:00:48;;;;;;;6.65;4.13;;;-2.30;99.90;;;;;;5037103;28;20041;-83
2022/03/07 06:03:14;;;;;;;9.45;4.60;;;-2.30;99.90;;;;;;5020264;28;20052;-83
2022/03/07 06:05:40;;;;;;;6.45;3.30;;;-2.30;99.90;;;;;;5037072;28;20045;-82
2022/03/07 06:08:06;;;;;;;6.38;3.15;;;-2.30;99.90;;;;;;5037090;28;20037;-83
2022/03/07 06:10:32;;;;;;;10.80;4.65;;;-2.30;99.90;;;;;;5020574;28;20461;-83
2022/03/07 06:12:59;;;;;;;5.40;3.55;;;-2.30;99.90;;;;;;5036942;28;20056;-82
2022/03/07 06:15:25;;;;;;;7.90;4.00;;;-2.30;99.90;;;;;;5020385;28;20049;-83
2022/03/07 06:17:52;;;;;;;6.35;3.85;;;-2.30;99.90;;;;;;5020376;28;20362;-82
2022/03/07 06:20:19;;;;;;;4.60;3.10;;;-2.30;99.90;;;;;;5020509;28;20059;-83
2022/03/07 06:22:45;;;;;;;8.95;3.97;;;-2.20;99.90;;;;;;5036809;28;20137;-83
2022/03/07 06:25:11;;;;;;;5.28;3.40;;;-2.20;99.90;;;;;;5017080;28;20088;-83
2022/03/07 06:27:37;;;;;;;4.82;3.53;;;-2.20;99.90;;;;;;5015989;28;20206;-83
2022/03/07 06:30:04;;;;;;;9.65;3.92;;;-2.20;99.90;;;;;;5036526;28;20171;-82
2022/03/07 06:32:30;;;;;;;8.27;3.55;;;-2.20;99.90;;;;;;5039099;28;20041;-83
2022/03/07 06:34:55;;;;;;;7.68;3.70;;;-2.20;99.90;;;;;;5056489;28;20457;-83
2022/03/07 06:37:23;;;;;;;6.90;3.47;;;-2.20;99.90;;;;;;5056377;28;20060;-82
2022/03/07 06:39:49;;;;;;;7.65;3.75;;;-2.10;99.90;;;;;;5039593;28;20052;-83
2022/03/07 06:42:15;;;;;;;6.75;3.63;;;-2.10;99.90;;;;;;5039901;28;20056;-82
2022/03/07 06:44:40;;;;;;;6.25;4.43;;;-2.00;99.90;;;;;;5039310;28;20399;-82
2022/03/07 06:47:07;;;;;;;10.27;4.40;;;-2.00;99.90;;;;;;5039631;28;20106;-82
2022/03/07 06:49:34;;;;;;;5.45;3.95;;;-1.90;99.90;;;;;;5056224;28;20044;-83
2022/03/07 06:52:00;;;;;;;8.18;4.47;;;-1.80;99.90;;;;;;5056145;28;20044;-82
2022/03/07 06:54:25;;;;;;;8.55;4.35;;;-1.70;99.90;;;;;;5056068;28;20105;-82
2022/03/07 06:56:51;;;;;;;6.35;3.80;;;-1.60;99.90;;;;;;5039527;28;20044;-82
2022/03/07 06:59:17;;;;;;;7.60;4.10;;;-1.60;99.90;;;;;;5038149;28;20040;-82
2022/03/07 07:01:43;;;;;;;6.35;3.55;;;-1.50;99.90;;;;;;5056134;28;20318;-82
2022/03/07 07:04:09;;;;;;;5.85;3.55;;;-1.40;99.90;;;;;;5055765;28;20365;-83
2022/03/07 07:06:34;;;;;;;8.73;4.05;;;-1.40;99.90;;;;;;5039223;28;20123;-83
2022/03/07 07:09:00;;;;;;;7.70;3.80;;;-1.30;99.90;;;;;;5039292;28;20044;-83
2022/03/07 07:11:26;;;;;;;6.80;4.13;;;-1.20;99.90;;;;;;5039229;28;20040;-82
2022/03/07 07:13:52;;;;;;;8.57;4.85;;;-1.10;99.90;;;;;;5038894;28;20084;-84
2022/03/07 07:16:18;;;;;;;10.50;5.55;;;-1.00;99.90;;;;;;5039204;28;20049;-83
2022/03/07 07:18:56;;;;;;;9.88;5.43;;;-0.90;99.90;;;;;;5090485;28;20370;-68
2022/03/07 07:21:22;;;;;;;9.70;5.30;;;-0.80;99.90;;;;;;5089533;28;20495;-68
2022/03/07 07:23:48;;;;;;;7.35;4.50;;;-0.70;99.90;;;;;;5089318;28;20032;-68
2022/03/07 07:26:14;;;;;;;8.48;4.43;;;-0.60;99.90;;;;;;5088282;28;20044;-68
2022/03/07 07:28:40;;;;;;;8.27;4.45;;;-0.60;99.90;;;;;;5106181;28;20044;-68
2022/03/07 07:31:05;;;;;;;9.50;5.00;;;-0.50;99.90;;;;;;5090079;28;20075;-69
2022/03/07 07:33:31;;;;;;;15.10;5.00;;;-0.40;99.90;;;;;;5089349;28;20040;-69
2022/03/07 07:35:57;;;;;;;18.23;5.38;;;-0.30;99.90;;;;;;5088787;28;20048;-69
2022/03/07 07:38:23;;;;;;;6.65;4.32;;;-0.20;99.90;;;;;;5090025;28;20048;-69
2022/03/07 07:40:49;;;;;;;6.95;3.95;;;-0.20;99.90;;;;;;5089092;28;20422;-70
2022/03/07 07:43:16;;;;;;;12.55;4.75;;;-0.10;99.90;;;;;;5088874;28;20058;-69
2022/03/07 07:45:43;;;;;;;7.45;4.30;;;0.00;99.90;;;;;;5071867;28;20048;-69
2022/03/07 07:48:09;;;;;;;6.57;4.07;;;0.10;99.90;;;;;;5088802;28;20050;-68
2022/03/07 07:50:35;;;;;;;6.13;3.95;;;0.20;99.90;;;;;;5071779;28;20156;-69
2022/03/07 07:53:00;;;;;;;5.97;4.18;;;0.30;99.90;;;;;;5088555;28;20044;-68
2022/03/07 07:55:26;;;;;;;13.30;5.93;;;0.40;99.90;;;;;;5088468;28;20043;-68
2022/03/07 07:57:52;;;;;;;10.60;6.35;;;0.50;99.90;;;;;;5086604;28;20116;-67
2022/03/07 08:00:21;;;;;;;5.78;4.80;;;0.70;99.90;;;;;;5088373;28;20045;-68
2022/03/07 08:02:49;;;;;;;8.75;4.80;;;0.90;99.90;;;;;;5071903;28;20040;-66
2022/03/07 08:05:16;;;;;;;8.98;4.95;;;1.00;99.90;;;;;;5088481;28;20040;-66
2022/03/07 08:07:43;;;;;;;8.77;5.00;;;1.10;99.90;;;;;;5088877;28;20116;-67
2022/03/07 08:10:11;;;;;;;12.00;5.70;;;1.30;99.90;;;;;;5084624;28;20093;-67
2022/03/07 08:12:37;;;;;;;10.85;6.32;;;1.50;99.90;;;;;;5088605;28;20060;-67
2022/03/07 08:15:05;;;;;;;9.52;6.00;;;1.80;99.90;;;;;;5088043;28;20424;-67
2022/03/07 08:17:31;;;;;;;12.98;6.30;;;2.10;99.90;;;;;;5088060;28;20048;-67
2022/03/07 08:19:57;;;;;;;11.52;7.43;;;2.40;99.90;;;;;;5088021;28;20044;-68
2022/03/07 08:22:23;;;;;;;9.48;7.32;;;2.90;99.90;;;;;;5088178;28;20045;-67
2022/03/07 08:24:49;;;;;;;10.63;7.13;;;3.90;99.90;;;;;;5088229;28;20173;-68
2022/03/07 08:27:15;;;;;;;10.13;6.05;;;5.00;99.90;;;;;;5076534;28;20049;-68
2022/03/07 08:29:40;;;;;;;10.45;5.43;;;6.00;99.90;;;;;;5054427;28;20040;-68
2022/03/07 08:32:06;;;;;;;8.23;5.05;;;6.90;99.90;;;;;;5074404;28;20044;-68
2022/03/07 08:34:32;;;;;;;8.40;4.93;;;7.80;99.90;;;;;;5074374;28;20044;-68
2022/03/07 08:36:58;;;;;;;8.50;4.85;;;8.20;99.90;;;;;;5073426;28;20048;-68
2022/03/07 08:39:25;;;;;;;7.45;4.88;;;8.30;99.90;;;;;;5057794;28;20032;-67
2022/03/07 08:41:51;;;;;;;10.25;5.35;;;8.70;99.90;;;;;;5074553;28;20048;-68
2022/03/07 08:44:17;;;;;;;7.95;5.00;;;9.10;99.90;;;;;;5107897;28;20448;-67
2022/03/07 08:46:43;;;;;;;8.27;5.03;;;9.60;99.90;;;;;;5073753;28;20044;-68
2022/03/07 08:49:09;;;;;;;9.25;5.95;;;10.10;99.90;;;;;;5073987;28;20045;-68
2022/03/07 08:51:35;;;;;;;6.53;4.85;;;10.40;99.90;;;;;;5074441;28;20081;-68
2022/03/07 08:54:01;;;;;;;9.32;4.75;;;10.60;99.90;;;;;;5074335;28;20123;-68
2022/03/07 08:56:27;;;;;;;9.20;4.45;;;10.90;99.90;;;;;;5072627;28;20068;-68
2022/03/07 08:58:53;;;;;;;6.55;4.88;;;11.50;99.90;;;;;;5074079;28;20050;-68
2022/03/07 09:01:20;;;;;;;7.72;4.13;;;11.90;99.90;;;;;;5070166;28;20044;-68
2022/03/07 09:03:46;;;;;;;7.03;4.93;;;12.30;99.90;;;;;;5073917;28;20048;-68
2022/03/07 09:06:12;;;;;;;5.55;3.83;;;12.30;99.90;;;;;;5071000;28;20044;-68
2022/03/07 09:08:41;;;;;;;4.60;3.63;;;12.20;99.90;;;;;;5072431;28;20098;-69
2022/03/07 09:11:07;;;;;;;7.20;3.80;;;12.50;99.90;;;;;;5073917;28;20029;-68
2022/03/07 09:13:32;;;;;;;5.90;3.00;;;12.60;99.90;;;;;;5057283;28;20503;-68
2022/03/07 09:15:58;;;;;;;7.72;3.33;;;12.50;99.90;;;;;;5074003;28;20036;-69
2022/03/07 09:18:26;;;;;;;5.90;3.42;;;12.70;99.90;;;;;;5073653;28;20523;-68
2022/03/07 09:20:52;;;;;;;7.03;3.67;;;13.10;99.90;;;;;;5073631;28;20090;-68
2022/03/07 09:23:17;;;;;;;6.55;3.92;;;13.30;99.90;;;;;;5073354;28;20044;-68
2022/03/07 09:25:43;;;;;;;9.25;4.10;;;13.20;98.80;;;;;;5073427;28;20045;-68
2022/03/07 09:28:09;;;;;;;8.75;4.55;;;13.10;97.30;;;;;;5072120;28;20051;-68
2022/03/07 09:30:35;;;;;;;5.57;3.42;;;12.60;96.60;;;;;;5073380;28;20075;-67
2022/03/07 09:33:03;;;;;;;5.78;3.40;;;12.00;94.30;;;;;;5056778;28;20097;-68
2022/03/07 09:35:33;;;;;;;8.85;3.78;;;12.10;97.00;;;;;;5073594;28;20494;-67
2022/03/07 09:37:59;;;;;;;6.35;3.78;;;12.40;96.90;;;;;;5073076;28;20049;-68
2022/03/07 09:40:25;;;;;;;6.43;3.63;;;12.70;95.00;;;;;;5072081;28;20044;-68
2022/03/07 09:42:54;;;;;;;8.23;4.15;;;13.20;94.30;;;;;;5056491;28;20051;-68
2022/03/07 09:45:20;;;;;;;6.95;3.53;;;12.90;89.30;;;;;;5072522;28;20032;-67
2022/03/07 09:47:48;;;;;;;4.70;3.25;;;12.20;86.50;;;;;;5073463;28;20048;-67
2022/03/07 09:50:32;;;;;;;6.35;3.17;;;11.80;90.40;;;;;;5072863;28;20040;-67
2022/03/07 09:52:58;;;;;;;6.63;3.60;;;11.50;85.80;;;;;;5073076;28;20044;-67
2022/03/07 09:55:25;;;;;;;4.80;3.15;;;11.10;90.40;;;;;;5073122;28;20048;-67
2022/03/07 09:58:06;;;;;;;6.22;3.30;;;11.10;93.20;;;;;;5071797;28;20052;-67
2022/03/07 10:00:35;;;;;;;6.38;3.45;;;11.50;92.60;;;;;;5073602;28;20055;-67
2022/03/07 10:03:05;;;;;;;4.25;2.35;;;11.90;93.00;;;;;;5056071;28;20515;-67
2022/03/07 10:05:40;;;;;;;4.50;2.80;;;12.20;91.00;;;;;;5072617;28;20502;-67
2022/03/07 10:08:09;;;;;;;6.25;2.60;;;12.50;86.70;;;;;;5072457;28;20045;-68
2022/03/07 10:10:37;;;;;;;6.03;3.40;;;12.30;81.90;;;;;;5072449;28;20051;-67
2022/03/07 10:13:09;;;;;;;4.68;2.67;;;11.90;81.90;;;;;;5072205;28;20083;-69
2022/03/07 10:15:36;;;;;;;5.32;3.28;;;11.90;83.90;;;;;;5072242;28;20040;-67
2022/03/07 10:18:02;;;;;;;6.05;3.33;;;11.90;83.10;;;;;;5072259;28;20522;-67
2022/03/07 10:20:29;;;;;;;5.95;3.63;;;11.80;82.00;;;;;;5055790;28;20072;-67
2022/03/07 10:22:58;;;;;;;5.45;3.50;;;12.00;83.50;;;;;;5072744;28;20032;-67
2022/03/07 10:25:32;;;;;;;7.05;4.13;;;12.80;85.00;;;;;;5072329;28;20124;-67
2022/03/07 10:28:01;;;;;;;4.68;3.13;;;13.40;81.10;;;;;;5070369;28;20040;-67
2022/03/07 10:30:29;;;;;;;4.97;3.63;;;14.10;80.40;;;;;;5069330;28;20056;-67
2022/03/07 10:33:03;;;;;;;4.95;3.55;;;14.70;76.10;;;;;;5072190;28;20037;-67
2022/03/07 10:35:33;;;;;;;6.30;3.30;;;14.50;72.40;;;;;;5054588;28;20040;-68
2022/03/07 10:38:04;;;;;;;5.25;3.58;;;14.40;72.00;;;;;;5055281;28;20044;-68
2022/03/07 10:40:32;;;;;;;4.18;3.50;;;14.50;73.40;;;;;;5072346;28;20185;-67
2022/03/07 10:43:04;;;;;;;4.35;3.17;;;14.30;69.60;;;;;;5069318;28;20076;-67
2022/03/07 10:45:31;;;;;;;5.43;3.58;;;14.20;66.30;;;;;;5072254;28;20381;-67
2022/03/07 10:48:04;;;;;;;6.40;3.75;;;13.90;67.60;;;;;;5071800;28;20047;-67
2022/03/07 10:50:30;;;;;;;5.60;3.85;;;13.80;68.00;;;;;;5072217;28;20036;-67
2022/03/07 10:53:05;;;;;;;5.57;3.70;;;13.50;70.10;;;;;;5054915;28;20072;-67
2022/03/07 10:55:33;;;;;;;6.38;4.07;;;13.20;69.50;;;;;;5071999;28;20075;-67
2022/03/07 10:58:08;;;;;;;5.43;3.53;;;12.90;71.00;;;;;;5069966;28;20447;-67
2022/03/07 11:00:46;;;;;;;5.60;3.50;;;12.90;71.70;;;;;;5072061;28;20036;-67
2022/03/07 11:03:23;;;;;;;4.45;3.38;;;13.70;70.90;;;;;;5071885;28;20111;-67
2022/03/07 11:05:50;;;;;;;5.10;3.65;;;14.60;69.00;;;;;;5070124;28;20045;-67
2022/03/07 11:08:17;;;;;;;7.30;4.00;;;14.90;66.00;;;;;;5071625;28;20101;-67
2022/03/07 11:10:46;;;;;;;5.85;4.30;;;14.30;64.60;;;;;;5071888;28;20051;-67
2022/03/07 11:13:14;;;;;;;7.15;4.20;;;13.70;66.10;;;;;;5071875;28;20041;-67
2022/03/07 11:15:46;;;;;;;7.38;4.60;;;13.10;66.90;;;;;;5071776;28;20044;-67
2022/03/07 11:18:15;;;;;;;6.95;3.88;;;12.50;68.20;;;;;;5068203;28;20071;-67
2022/03/07 11:20:43;;;;;;;5.90;3.65;;;12.20;71.40;;;;;;5071719;28;20044;-66
2022/03/07 11:23:11;;;;;;;7.38;3.75;;;12.20;72.30;;;;;;5071764;28;20403;-66
2022/03/07 11:25:39;;;;;;;6.03;3.53;;;12.10;74.10;;;;;;5071767;28;20072;-67
2022/03/07 11:28:06;;;;;;;6.00;3.80;;;13.00;74.80;;;;;;5069444;28;20532;-67
2022/03/07 11:30:39;;;;;;;5.88;3.03;;;13.10;72.40;;;;;;5071329;28;20132;-67
2022/03/07 11:33:16;;;;;;;5.45;3.38;;;13.80;70.30;;;;;;5071239;28;20056;-67
2022/03/07 11:35:50;;;;;;;5.68;3.28;;;14.30;66.60;;;;;;5070935;28;20041;-67
2022/03/07 11:38:25;;;;;;;4.95;3.08;;;13.60;66.30;;;;;;5071040;28;20132;-67
2022/03/07 11:41:00;;;;;;;5.30;3.42;;;12.60;67.40;;;;;;5071302;28;20084;-67
2022/03/07 11:43:28;;;;;;;5.78;3.42;;;11.70;69.20;;;;;;5071379;28;20048;-67
2022/03/07 11:45:55;;;;;;;5.18;3.55;;;11.00;71.30;;;;;;5071234;28;20040;-67
2022/03/07 11:48:21;;;;;;;3.75;2.78;;;10.60;73.30;;;;;;5071569;28;20090;-67
2022/03/07 11:50:48;;;;;;;6.25;3.45;;;11.30;75.50;;;;;;5071265;28;20040;-67
2022/03/07 11:53:14;;;;;;;4.68;2.42;;;12.40;74.70;;;;;;5071423;28;20044;-67
2022/03/07 11:55:49;;;;;;;3.88;2.70;;;13.60;72.50;;;;;;5071183;28;20767;-67
2022/03/07 11:58:30;;;;;;;5.22;3.15;;;14.30;68.00;;;;;;5069578;28;20041;-67
2022/03/07 12:01:09;;;;;;;3.88;2.70;;;13.70;65.60;;;;;;5105009;28;20084;-67
2022/03/07 12:03:35;;;;;;;5.70;3.25;;;13.90;68.10;;;;;;5071685;28;20037;-67
2022/03/07 12:06:10;;;;;;;4.97;2.60;;;14.50;67.50;;;;;;5074887;28;20040;-67
2022/03/07 12:09:01;;;;;;;4.95;3.05;;;15.00;66.30;;;;;;5074729;28;20111;-67
2022/03/07 12:11:32;;;;;;;4.47;2.60;;;15.40;63.40;;;;;;5072946;28;20097;-67
2022/03/07 12:14:03;;;;;;;5.85;3.65;;;15.80;63.80;;;;;;5071781;28;20051;-67
2022/03/07 12:16:40;;;;;;;3.60;2.08;;;16.10;62.70;;;;;;5074735;28;20123;-67
2022/03/07 12:19:10;;;;;;;4.60;2.30;;;15.50;62.60;;;;;;5073483;28;20091;-67
2022/03/07 12:21:38;;;;;;;3.97;2.30;;;15.10;63.40;;;;;;5074568;28;20127;-67
2022/03/07 12:24:08;;;;;;;3.88;2.15;;;14.60;63.10;;;;;;5058165;28;20043;-67
2022/03/07 12:26:46;;;;;;;6.25;2.58;;;13.80;63.30;;;;;;5056084;28;20091;-67
2022/03/07 12:29:13;;;;;;;6.43;2.60;;;13.10;62.90;;;;;;5054642;28;20048;-66
2022/03/07 12:31:47;;;;;;;5.45;2.47;;;12.40;63.40;;;;;;5084627;28;20506;-66
2022/03/07 12:34:13;;;;;;;6.00;2.35;;;11.90;64.40;;;;;;5071459;28;20048;-66
2022/03/07 12:36:39;;;;;;;4.20;2.10;;;11.80;63.70;;;;;;5074428;28;20045;-66
2022/03/07 12:39:08;;;;;;;4.28;2.63;;;11.50;64.90;;;;;;5074431;28;20044;-66
2022/03/07 12:41:36;;;;;;;4.97;2.40;;;12.20;66.60;;;;;;5074090;28;20476;-66
2022/03/07 12:44:03;;;;;;;4.45;2.30;;;13.00;65.80;;;;;;5074411;28;20486;-66
2022/03/07 12:46:30;;;;;;;3.95;2.40;;;13.10;64.40;;;;;;5074357;28;20392;-66
2022/03/07 12:48:58;;;;;;;4.70;2.25;;;12.70;64.20;;;;;;5074158;28;20083;-66